Time;durP1;ratioP1;P1;durP2;ratioP2;P2;SDS_P1;SDS_P2;PMS_P1;PMS_P2;Temp;Humidity;BMP_temperature;BMP_pressure;BME280_temperature;BME280_humidity;BME280_pressure;Samples;Min_cycle;Max_cycle;Signal;HPM_P1;HPM_P2
2022/11/25 00:07:51;;;;;;;1.80;1.00;;;;;;;;;;21068013;28;20216;-66
2022/11/25 00:17:55;;;;;;;1.87;0.90;;;;;;;;;;21034686;28;20212;-66
2022/11/25 00:27:56;;;;;;;1.37;1.10;;;;;;;;;;21067567;28;20208;-66
2022/11/25 00:37:59;;;;;;;2.60;1.07;;;;;;;;;;21067045;28;20822;-67
2022/11/25 00:48:01;;;;;;;2.10;1.20;;;;;;;;;;21048334;28;20613;-67
2022/11/25 00:58:03;;;;;;;6.13;1.60;;;;;;;;;;21047627;28;20611;-67
2022/11/25 01:08:04;;;;;;;2.13;1.00;;;;;;;;;;21066144;28;20282;-66
2022/11/25 01:18:07;;;;;;;2.37;1.23;;;;;;;;;;21064762;28;20273;-66
2022/11/25 01:28:09;;;;;;;1.97;1.17;;;;;;;;;;21061824;28;20289;-66
2022/11/25 01:38:10;;;;;;;2.93;1.20;;;;;;;;;;21063508;28;20266;-66
2022/11/25 01:48:15;;;;;;;2.57;1.20;;;;;;;;;;21061784;28;20257;-67
2022/11/25 01:58:25;;;;;;;2.17;0.93;;;5.50;99.90;;;;;;21078632;28;20243;-67
2022/11/25 02:08:29;;;;;;;2.53;1.13;;;5.50;99.90;;;;;;21043751;28;20273;-66
2022/11/25 02:18:31;;;;;;;1.30;0.83;;;;;;;;;;21059223;28;20691;-67
2022/11/25 02:28:33;;;;;;;1.57;1.00;;;;;;;;;;21059192;28;20242;-67
2022/11/25 02:38:49;;;;;;;2.93;0.90;;;5.50;99.90;;;;;;21057672;28;20204;-67
2022/11/25 02:48:53;;;;;;;1.50;0.77;;;5.70;99.90;;;;;;21057010;28;20286;-67
2022/11/25 02:58:55;;;;;;;1.23;0.63;;;;;;;;;;21039109;28;20579;-67
2022/11/25 03:09:00;;;;;;;2.37;0.93;;;;;;;;;;21055459;28;20220;-67
2022/11/25 03:19:02;;;;;;;2.13;1.07;;;5.50;99.90;;;;;;21054457;28;20767;-66
2022/11/25 03:29:04;;;;;;;1.57;1.00;;;;;;;;;;21108924;28;20272;-67
2022/11/25 03:39:07;;;;;;;2.13;0.77;;;;;;;;;;21137762;28;20273;-67
2022/11/25 03:49:11;;;;;;;1.10;0.70;;;;;;;;;;21136424;28;20230;-68
2022/11/25 03:59:14;;;;;;;2.50;0.97;;;;;;;;;;21134090;28;20223;-67
2022/11/25 04:09:15;;;;;;;1.23;0.60;;;;;;;;;;21153179;28;20626;-67
2022/11/25 04:19:18;;;;;;;5.17;1.00;;;;;;;;;;21133190;28;20288;-67
2022/11/25 04:29:20;;;;;;;1.30;0.60;;;;;;;;;;21132488;28;20286;-67
2022/11/25 04:39:23;;;;;;;0.73;0.53;;;;;;;;;;21133743;28;20207;-66
2022/11/25 04:49:28;;;;;;;2.73;1.00;;;;;;;;;;21133926;28;20256;-67
2022/11/25 04:59:40;;;;;;;2.37;0.70;;;;;;;;;;21143887;28;20232;-66
2022/11/25 05:09:43;;;;;;;6.73;1.00;;;;;;;;;;21149152;28;20538;-67
2022/11/25 05:19:52;;;;;;;0.90;0.43;;;;;;;;;;21166039;28;20770;-67
2022/11/25 05:29:54;;;;;;;3.57;0.70;;;;;;;;;;21178979;22;20231;-68
2022/11/25 05:39:58;;;;;;;1.53;0.67;;;;;;;;;;21145732;28;20591;-68
2022/11/25 05:50:18;;;;;;;0.40;0.40;;;;;;;;;;21162981;28;20268;-68
2022/11/25 06:00:37;;;;;;;1.70;0.70;;;;;;;;;;21145146;28;20219;-68
2022/11/25 06:10:44;;;;;;;1.77;0.50;;;;;;;;;;21156634;27;20287;-67
2022/11/25 06:20:55;;;;;;;2.17;0.83;;;;;;;;;;21207099;27;20231;-68
2022/11/25 06:31:03;;;;;;;1.30;0.50;;;;;;;;;;21226710;27;20226;-66
2022/11/25 06:41:11;;;;;;;1.40;0.60;;;;;;;;;;21226777;27;20215;-67
2022/11/25 06:51:13;;;;;;;1.40;0.80;;;5.60;99.90;;;;;;21215311;27;20679;-67
2022/11/25 07:01:15;;;;;;;2.57;0.90;;;;;;;;;;21166394;27;20215;-68
2022/11/25 07:11:24;;;;;;;1.57;1.17;;;;;;;;;;21208297;27;20269;-66
2022/11/25 07:21:26;;;;;;;6.57;1.07;;;;;;;;;;21215017;27;20726;-68
2022/11/25 07:31:36;;;;;;;1.63;0.67;;;5.50;99.90;;;;;;21223296;27;20219;-67
2022/11/25 07:41:39;;;;;;;2.67;1.27;;;;;;;;;;21242238;27;20211;-68
2022/11/25 07:51:41;;;;;;;3.77;1.20;;;;;;;;;;21239430;27;20195;-68
2022/11/25 08:01:43;;;;;;;1.43;0.73;;;5.50;99.90;;;;;;21238501;27;20597;-67
2022/11/25 08:11:45;;;;;;;0.87;0.53;;;5.50;99.90;;;;;;21183058;27;20281;-68
2022/11/25 08:21:47;;;;;;;1.47;0.97;;;;;;;;;;21176723;27;20234;-68
2022/11/25 08:31:49;;;;;;;1.30;0.63;;;;;;;;;;21209777;27;20603;-68
2022/11/25 08:41:51;;;;;;;1.50;0.73;;;;;;;;;;21178486;27;20580;-67
2022/11/25 08:51:53;;;;;;;4.50;0.80;;;;;;;;;;21208866;28;20279;-67
2022/11/25 09:01:54;;;;;;;1.13;0.70;;;;;;;;;;21211554;28;20625;-69
2022/11/25 09:11:56;;;;;;;2.83;0.77;;;;;;;;;;21232046;28;20263;-67
2022/11/25 09:21:58;;;;;;;1.40;0.50;;;;;;;;;;21234782;28;20268;-68
2022/11/25 09:31:59;;;;;;;1.80;0.83;;;;;;;;;;21235361;28;20215;-68
2022/11/25 09:52:55;;;;;;;2.03;0.70;;;;;;;;;;21250449;27;20560;-67
2022/11/25 10:03:14;;;;;;;0.70;0.57;;;6.60;99.90;;;;;;21249185;27;20673;-66
2022/11/25 10:13:24;;;;;;;2.07;0.87;;;6.70;99.90;;;;;;21246739;27;20701;-66
2022/11/25 10:23:37;;;;;;;1.40;0.70;;;6.80;99.90;;;;;;21247524;27;20226;-67
2022/11/25 10:33:51;;;;;;;4.00;0.93;;;6.80;99.90;;;;;;21227443;27;20206;-66
2022/11/25 10:43:53;;;;;;;1.63;0.90;;;;;;;;;;21226852;27;20231;-68
2022/11/25 10:54:14;;;;;;;3.33;1.07;;;6.80;99.90;;;;;;21174017;27;20203;-75
2022/11/25 11:04:17;;;;;;;3.47;1.13;;;;;;;;;;21130997;27;20215;-67
2022/11/25 11:14:20;;;;;;;3.77;1.30;;;;;;;;;;21201873;27;20265;-67
2022/11/25 11:24:31;;;;;;;3.47;0.97;;;;;;;;;;21205661;22;20303;-70
2022/11/25 11:34:50;;;;;;;2.93;1.17;;;;;;;;;;20835137;28;20214;-71
2022/11/25 11:44:51;;;;;;;1.30;0.90;;;;;;;;;;20818533;28;20229;-71
2022/11/25 11:54:57;;;;;;;1.20;0.70;;;;;;;;;;20872981;28;20206;-70
2022/11/25 12:05:06;;;;;;;1.70;1.00;;;;;;;;;;20888676;28;20222;-70
2022/11/25 12:15:20;;;;;;;2.47;0.90;;;7.50;99.90;;;;;;20872864;28;20272;-72
2022/11/25 12:25:24;;;;;;;1.67;0.90;;;;;;;;;;20888373;28;20225;-71
2022/11/25 12:35:41;;;;;;;1.67;0.97;;;7.90;99.90;;;;;;20871394;28;20201;-70
2022/11/25 12:45:45;;;;;;;2.13;0.87;;;;;;;;;;20880878;28;20689;-70
2022/11/25 12:55:46;;;;;;;0.90;0.67;;;;;;;;;;20825868;28;20279;-70
2022/11/25 13:06:00;;;;;;;2.43;1.17;;;;;;;;;;20869868;28;20247;-70
2022/11/25 13:16:05;;;;;;;1.67;0.70;;;;;;;;;;20888785;28;20222;-70
2022/11/25 13:26:25;;;;;;;3.50;0.57;;;;;;;;;;20854216;28;20287;-70
2022/11/25 13:36:44;;;;;;;0.90;0.70;;;8.20;99.90;;;;;;20876354;28;20267;-71
2022/11/25 13:46:51;;;;;;;1.60;1.00;;;;;;;;;;20823413;28;20276;-70
2022/11/25 13:57:14;;;;;;;1.90;0.90;;;8.00;99.90;;;;;;20829768;28;20218;-71
2022/11/25 14:07:25;;;;;;;2.33;1.13;;;;;;;;;;20795442;28;20600;-71
2022/11/25 14:17:48;;;;;;;2.17;1.10;;;8.20;99.90;;;;;;20797032;28;20206;-71
2022/11/25 14:28:17;;;;;;;1.70;0.90;;;;;;;;;;20811518;28;20218;-70
2022/11/25 14:38:28;;;;;;;4.17;1.70;;;8.20;99.90;;;;;;20802984;28;20751;-71
2022/11/25 14:48:32;;;;;;;4.67;1.90;;;;;;;;;;20808908;28;20222;-71
2022/11/25 14:58:34;;;;;;;3.93;1.83;;;;;;;;;;20772192;28;20206;-71
2022/11/25 15:08:45;;;;;;;5.33;1.50;;;;;;;;;;20821205;28;20211;-70
2022/11/25 15:18:48;;;;;;;8.23;1.83;;;;;;;;;;20787472;28;20226;-71
2022/11/25 15:28:57;;;;;;;5.63;2.40;;;;;;;;;;20819045;28;20257;-70
2022/11/25 15:39:15;;;;;;;3.30;2.17;;;;;;;;;;20799973;28;20268;-71
2022/11/25 15:49:18;;;;;;;1.63;1.03;;;;;;;;;;20800555;28;20284;-70
2022/11/25 15:59:46;;;;;;;1.33;0.50;;;;;;;;;;20787222;28;20917;-71
2022/11/25 16:09:51;;;;;;;1.27;0.70;;;;;;;;;;20781917;28;20241;-71
2022/11/25 16:19:53;;;;;;;1.80;1.07;;;;;;;;;;20802444;28;20299;-70
2022/11/25 16:30:15;;;;;;;2.77;0.67;;;7.70;99.90;;;;;;20803258;28;20242;-70
2022/11/25 16:40:18;;;;;;;1.30;0.60;;;;;;;;;;20833348;28;20920;-70
2022/11/25 16:50:20;;;;;;;3.90;1.60;;;;;;;;;;20802710;28;20569;-70
2022/11/25 17:00:23;;;;;;;1.87;0.80;;;;;;;;;;20792120;28;20219;-70
2022/11/25 17:10:25;;;;;;;3.03;1.10;;;;;;;;;;20717202;28;20245;-70
2022/11/25 17:20:29;;;;;;;2.87;0.97;;;;;;;;;;20732889;28;20215;-71
2022/11/25 17:30:31;;;;;;;3.67;1.20;;;;;;;;;;20747235;28;20219;-70
2022/11/25 17:40:33;;;;;;;2.27;1.13;;;;;;;;;;20711915;28;20219;-71
2022/11/25 17:50:35;;;;;;;2.80;1.03;;;;;;;;;;20761942;28;20585;-71
2022/11/25 18:00:38;;;;;;;3.30;0.87;;;;;;;;;;20814633;28;20284;-71
2022/11/25 18:10:40;;;;;;;6.03;2.97;;;;;;;;;;20859108;28;20210;-71
2022/11/25 18:20:42;;;;;;;1.13;0.47;;;;;;;;;;20857712;28;20225;-71
2022/11/25 18:30:43;;;;;;;5.00;1.80;;;;;;;;;;20787974;28;20311;-70
2022/11/25 18:40:45;;;;;;;1.43;0.83;;;;;;;;;;20806321;28;20764;-71
2022/11/25 18:50:48;;;;;;;3.37;1.77;;;;;;;;;;20886702;23;20294;-67
2022/11/25 19:00:51;;;;;;;2.70;1.67;;;;;;;;;;21046642;28;20221;-66
2022/11/25 19:10:52;;;;;;;7.67;4.43;;;;;;;;;;21063994;28;20209;-66
2022/11/25 19:20:54;;;;;;;5.97;2.60;;;6.40;99.90;;;;;;21068453;28;20246;-66
2022/11/25 19:31:04;;;;;;;2.07;1.20;;;;;;;;;;21069836;28;20222;-67
2022/11/25 19:41:07;;;;;;;5.73;1.30;;;7.40;99.90;;;;;;21067473;28;20625;-67
2022/11/25 19:51:09;;;;;;;1.30;0.50;;;;;;;;;;21032845;28;20217;-69
2022/11/25 20:01:14;;;;;;;1.23;0.50;;;;;;;;;;20982615;28;20742;-67
2022/11/25 20:11:18;;;;;;;1.27;0.87;;;;;;;;;;20980478;28;20221;-66
2022/11/25 20:21:39;;;;;;;1.43;0.70;;;;;;;;;;20969988;28;20221;-66
2022/11/25 20:31:40;;;;;;;2.30;0.70;;;7.50;99.90;;;;;;20979828;28;20227;-67
2022/11/25 20:41:45;;;;;;;3.13;1.07;;;7.70;99.90;;;;;;20980487;28;20251;-67
2022/11/25 20:51:48;;;;;;;3.27;0.80;;;;;;;;;;21001626;28;20235;-66
2022/11/25 21:01:53;;;;;;;2.23;0.60;;;;;;;;;;21064534;28;20216;-69
2022/11/25 21:11:54;;;;;;;2.60;0.77;;;;;;;;;;21063115;28;20258;-67
2022/11/25 21:21:57;;;;;;;3.80;1.07;;;;;;;;;;21028459;28;20787;-68
2022/11/25 21:31:58;;;;;;;1.73;0.60;;;;;;;;;;21060147;28;20538;-68
2022/11/25 21:42:04;;;;;;;2.47;0.70;;;7.70;99.90;;;;;;21070042;28;20748;-68
2022/11/25 21:52:06;;;;;;;2.77;1.23;;;;;;;;;;21050781;28;20237;-68
2022/11/25 22:02:18;;;;;;;3.27;0.57;;;7.50;99.90;;;;;;21069958;28;20225;-66
2022/11/25 22:12:29;;;;;;;4.60;1.43;;;7.50;99.90;;;;;;21071655;28;20250;-68
2022/11/25 22:22:31;;;;;;;3.07;1.20;;;7.60;99.90;;;;;;21077405;28;20215;-66
2022/11/25 22:32:33;;;;;;;1.80;0.60;;;;;;;;;;21076716;28;20277;-68
2022/11/25 22:42:35;;;;;;;2.20;1.10;;;;;;;;;;21076871;28;20236;-69
2022/11/25 22:52:37;;;;;;;5.07;2.83;;;;;;;;;;21122303;28;20215;-68
2022/11/25 23:02:39;;;;;;;4.00;1.60;;;;;;;;;;21158440;28;20288;-68
2022/11/25 23:12:41;;;;;;;6.17;2.23;;;;;;;;;;21155907;28;20215;-68
2022/11/25 23:22:43;;;;;;;3.70;1.40;;;;;;;;;;21124892;28;20710;-68
2022/11/25 23:32:48;;;;;;;3.97;1.00;;;6.90;99.90;;;;;;21156096;28;20290;-68
2022/11/25 23:42:50;;;;;;;3.30;1.07;;;;;;;;;;21156248;28;20240;-68
2022/11/25 23:52:55;;;;;;;1.97;0.90;;;;;;;;;;21153907;28;20239;-69
